Bolivar, New York
Current Conditions -  °F | °C
As of 7:56 AM on Friday 19 Dec 2014 (Local Time) from KELZ Reporting Station
Overcast Overcast  
Wind Chill: 15°   Ceiling: 900
Heat Index: 23°   Visibility: 10mi
Dew Point: 19°   Wind: 7mph
Humidity: 85%   Direction: 310°NW
Pressure: 30.04"   Gusts: 17mph
Location:  42.07°N, 78.17°W
Report Text: KELZ 191256Z AUTO 31006G15KT 10SM OVC009 M05/M07 A3004 RMK AO2 UPE02 SLP204 P0000 T10501072
Loading
Personal Weather Stations






























Interactive Weather Map New forecast layout! Learn more

10-Day Weather Forecast

Advertisements
Track Severe Weather on mobile